Time;durP1;ratioP1;P1;durP2;ratioP2;P2;SDS_P1;SDS_P2;PMS_P1;PMS_P2;Temp;Humidity;BMP_temperature;BMP_pressure;BME280_temperature;BME280_humidity;BME280_pressure;Samples;Min_cycle;Max_cycle;Signal;HPM_P1;HPM_P2
2022/09/19 00:00:37;;;;;;;4.40;2.20;;;;;;;;;;110040;1253;34828;-31
2022/09/19 00:03:29;;;;;;;4.50;2.00;;;;;;;;;;110016;1253;36201;-31
2022/09/19 00:06:02;;;;;;;4.30;2.10;;;;;;;;;;110048;1253;36638;-31
2022/09/19 00:08:34;;;;;;;4.60;2.20;;;;;;;;;;110066;1253;36497;-31
2022/09/19 00:11:10;;;;;;;5.60;2.80;;;;;;;;;;110061;1253;36178;-31
2022/09/19 00:13:45;;;;;;;4.30;2.00;;;;;;;;;;110004;1254;36146;-31
2022/09/19 00:16:23;;;;;;;4.40;2.10;;;;;;;;;;110026;1253;34895;-31
2022/09/19 00:18:59;;;;;;;4.60;2.10;;;;;;;;;;109988;1253;34846;-31
2022/09/19 00:21:33;;;;;;;5.20;2.30;;;;;;;;;;110057;1252;36094;-31
2022/09/19 00:26:57;;;;;;;5.10;2.20;;;;;;;;;;109996;1253;36050;-31
2022/09/19 00:29:29;;;;;;;4.30;2.10;;;;;;;;;;110046;1253;34187;-31
2022/09/19 00:32:01;;;;;;;5.00;2.10;;;;;;;;;;110000;1253;37092;-31
2022/09/19 00:34:33;;;;;;;4.80;2.10;;;;;;;;;;110065;1252;36723;-31
2022/09/19 00:37:06;;;;;;;3.90;2.10;;;;;;;;;;110016;1253;36435;-31
2022/09/19 00:39:42;;;;;;;3.90;1.80;;;;;;;;;;110039;1253;34742;-31
2022/09/19 00:42:22;;;;;;;4.60;2.10;;;;;;;;;;109992;1253;36890;-31
2022/09/19 00:45:04;;;;;;;4.90;2.00;;;;;;;;;;110024;1253;36375;-31
2022/09/19 00:47:44;;;;;;;4.10;1.90;;;;;;;;;;110031;1253;36622;-31
2022/09/19 00:50:26;;;;;;;5.10;2.10;;;;;;;;;;110007;1253;36698;-31
2022/09/19 00:53:03;;;;;;;4.80;2.40;;;;;;;;;;109973;1253;34713;-31
2022/09/19 00:55:36;;;;;;;4.40;1.90;;;;;;;;;;110040;1253;36551;-31
2022/09/19 00:58:20;;;;;;;5.50;2.20;;;;;;;;;;110029;1254;36060;-31
2022/09/19 01:00:50;;;;;;;;;;;;;;;;;;110051;1253;36113;-31
2022/09/19 01:03:24;;;;;;;4.20;1.90;;;;;;;;;;109999;1253;36127;-31
2022/09/19 01:06:11;;;;;;;4.50;2.20;;;;;;;;;;110012;1253;36511;-31
2022/09/19 01:09:13;;;;;;;3.70;1.70;;;;;;;;;;110033;1253;36626;-31
2022/09/19 01:12:23;;;;;;;4.50;1.80;;;;;;;;;;110025;1253;34446;-31
2022/09/19 01:15:19;;;;;;;4.30;2.10;;;;;;;;;;110003;1253;36673;-31
2022/09/19 01:17:55;;;;;;;4.50;1.80;;;;;;;;;;110037;1253;36102;-31
2022/09/19 01:24:24;;;;;;;4.40;2.10;;;;;;;;;;109971;1253;34884;-31
2022/09/19 01:27:28;;;;;;;4.30;1.90;;;;;;;;;;110002;1253;37164;-31
2022/09/19 01:30:05;;;;;;;4.20;1.80;;;;;;;;;;110028;1253;34083;-31
2022/09/19 01:32:47;;;;;;;3.70;1.70;;;;;;;;;;110019;1253;36190;-31
2022/09/19 01:35:25;;;;;;;4.70;1.70;;;;;;;;;;110012;1253;36715;-31
2022/09/19 01:38:03;;;;;;;4.20;1.90;;;;;;;;;;110035;1253;36076;-31
2022/09/19 01:40:37;;;;;;;4.00;1.80;;;;;;;;;;110035;1253;34861;-31
2022/09/19 01:43:16;;;;;;;4.70;1.80;;;;;;;;;;110048;1253;36076;-31
2022/09/19 01:45:49;;;;;;;4.10;1.70;;;;;;;;;;110026;1253;36191;-31
2022/09/19 01:48:28;;;;;;;4.70;1.80;;;;;;;;;;110013;1253;36105;-31
2022/09/19 01:51:19;;;;;;;4.20;1.80;;;;;;;;;;110048;1254;34328;-31
2022/09/19 01:54:10;;;;;;;4.20;1.90;;;;;;;;;;109993;1253;36606;-31
2022/09/19 01:56:55;;;;;;;4.60;1.90;;;;;;;;;;110036;1253;36519;-31
2022/09/19 01:59:48;;;;;;;4.20;2.00;;;;;;;;;;110019;1253;36663;-31
2022/09/19 02:02:33;;;;;;;4.30;1.80;;;;;;;;;;110039;1254;34876;-31
2022/09/19 02:05:16;;;;;;;5.30;2.20;;;;;;;;;;109998;1254;36660;-31
2022/09/19 02:08:02;;;;;;;4.60;1.80;;;;;;;;;;110046;1253;37043;-31
2022/09/19 02:10:44;;;;;;;4.30;1.80;;;;;;;;;;110021;1253;34907;-31
2022/09/19 02:13:20;;;;;;;3.60;1.80;;;;;;;;;;110021;1253;34640;-31
2022/09/19 02:15:59;;;;;;;4.60;1.70;;;;;;;;;;110014;1254;36453;-31
2022/09/19 02:18:39;;;;;;;4.00;1.50;;;;;;;;;;110052;1253;36162;-31
2022/09/19 02:21:18;;;;;;;5.10;1.90;;;;;;;;;;110006;1253;36498;-31
2022/09/19 02:23:53;;;;;;;4.60;1.90;;;;;;;;;;110012;1253;36503;-31
2022/09/19 02:26:26;;;;;;;4.00;1.80;;;;;;;;;;110013;1253;36300;-31
2022/09/19 02:29:01;;;;;;;4.30;1.70;;;;;;;;;;110043;1253;34733;-31
2022/09/19 02:31:32;;;;;;;4.10;1.60;;;;;;;;;;110043;1253;36188;-31
2022/09/19 02:34:08;;;;;;;4.40;1.70;;;;;;;;;;110078;1254;36433;-31
2022/09/19 02:36:50;;;;;;;4.30;1.90;;;;;;;;;;109953;1254;35596;-31
2022/09/19 02:39:28;;;;;;;4.50;1.90;;;;;;;;;;110047;1254;34753;-31
2022/09/19 02:42:06;;;;;;;4.30;1.90;;;;;;;;;;110040;1253;36597;-31
2022/09/19 02:44:48;;;;;;;4.60;1.90;;;;;;;;;;110023;1253;36439;-31
2022/09/19 02:47:27;;;;;;;5.10;1.70;;;;;;;;;;109927;1253;36914;-31
2022/09/19 02:50:04;;;;;;;4.80;1.80;;;;;;;;;;110005;1253;34731;-31
2022/09/19 02:52:38;;;;;;;4.10;1.70;;;;;;;;;;110041;1253;34951;-31
2022/09/19 02:55:23;;;;;;;4.30;1.40;;;;;;;;;;110037;1253;36121;-31
2022/09/19 02:58:02;;;;;;;4.60;1.70;;;;;;;;;;110013;1253;36190;-31
2022/09/19 03:00:38;;;;;;;3.70;1.70;;;;;;;;;;110072;1254;37150;-31
2022/09/19 03:06:12;;;;;;;4.10;1.60;;;;;;;;;;110042;1254;34240;-31
2022/09/19 03:08:50;;;;;;;4.10;1.70;;;;;;;;;;109952;1253;34754;-31
2022/09/19 03:11:30;;;;;;;3.80;1.70;;;;;;;;;;110020;1253;35245;-31
2022/09/19 03:14:03;;;;;;;3.50;1.60;;;;;;;;;;110048;1253;36178;-31
2022/09/19 03:16:39;;;;;;;4.20;1.80;;;;;;;;;;110028;1253;36481;-31
2022/09/19 03:19:13;;;;;;;3.70;1.50;;;;;;;;;;110042;1253;34700;-31
2022/09/19 03:21:45;;;;;;;4.20;1.70;;;;;;;;;;110040;1254;36070;-31
2022/09/19 03:24:20;;;;;;;4.10;1.90;;;;;;;;;;110074;1253;36219;-31
2022/09/19 03:26:52;;;;;;;3.90;1.70;;;;;;;;;;109971;1253;36475;-31
2022/09/19 03:29:23;;;;;;;3.90;1.60;;;;;;;;;;110036;1253;34482;-31
2022/09/19 03:31:56;;;;;;;4.00;1.70;;;;;;;;;;110047;1253;34939;-31
2022/09/19 03:34:28;;;;;;;3.50;1.70;;;;;;;;;;110016;1253;36242;-31
2022/09/19 03:37:01;;;;;;;4.30;1.90;;;;;;;;;;110001;1253;36140;-31
2022/09/19 03:39:33;;;;;;;3.80;1.50;;;;;;;;;;110048;1253;35820;-31
2022/09/19 03:42:06;;;;;;;3.90;1.70;;;;;;;;;;110033;1254;36255;-31
2022/09/19 03:44:38;;;;;;;3.80;1.80;;;;;;;;;;110060;1252;36334;-31
2022/09/19 03:47:11;;;;;;;4.20;1.70;;;;;;;;;;109992;1252;36588;-31
2022/09/19 03:49:43;;;;;;;4.20;1.70;;;;;;;;;;110048;1253;36627;-31
2022/09/19 03:52:15;;;;;;;4.90;1.50;;;;;;;;;;110008;1253;37181;-31
2022/09/19 03:54:48;;;;;;;3.90;1.80;;;;;;;;;;110047;1253;36263;-31
2022/09/19 03:57:20;;;;;;;4.40;1.90;;;;;;;;;;110019;1253;36523;-31
2022/09/19 03:59:52;;;;;;;2.90;1.40;;;;;;;;;;110022;1253;36191;-31
2022/09/19 04:02:24;;;;;;;4.40;1.70;;;;;;;;;;110051;1253;33987;-31
2022/09/19 04:04:56;;;;;;;3.60;1.50;;;;;;;;;;110053;1253;37104;-31
2022/09/19 04:07:29;;;;;;;3.70;1.60;;;;;;;;;;109991;1253;36465;-31
2022/09/19 04:10:02;;;;;;;4.20;1.80;;;;;;;;;;110042;1253;36504;-31
2022/09/19 04:12:34;;;;;;;4.00;1.70;;;;;;;;;;110033;1253;35055;-31
2022/09/19 04:15:11;;;;;;;3.80;1.80;;;;;;;;;;110047;1254;36187;-31
2022/09/19 04:17:43;;;;;;;4.00;1.90;;;;;;;;;;110038;1253;37175;-31
2022/09/19 04:20:16;;;;;;;4.00;1.90;;;;;;;;;;110036;1253;36862;-31
2022/09/19 04:22:48;;;;;;;3.70;1.60;;;;;;;;;;110037;1254;36229;-31
2022/09/19 04:25:22;;;;;;;3.90;1.70;;;;;;;;;;110021;1254;36287;-31
2022/09/19 04:27:54;;;;;;;4.10;1.70;;;;;;;;;;110000;1253;36108;-31
2022/09/19 04:30:27;;;;;;;3.40;1.60;;;;;;;;;;110066;1253;36210;-31
2022/09/19 04:33:02;;;;;;;3.60;1.70;;;;;;;;;;110021;1254;34278;-31
2022/09/19 04:35:37;;;;;;;3.90;1.70;;;;;;;;;;110038;1253;36258;-31
2022/09/19 04:38:17;;;;;;;4.00;1.90;;;;;;;;;;109986;1253;36593;-31
2022/09/19 04:40:56;;;;;;;3.40;1.70;;;;;;;;;;110080;1253;36603;-31
2022/09/19 04:43:31;;;;;;;3.90;1.70;;;;;;;;;;110066;1253;37017;-31
2022/09/19 04:46:04;;;;;;;4.50;1.80;;;;;;;;;;110034;1254;36110;-31
2022/09/19 04:48:36;;;;;;;3.90;1.90;;;;;;;;;;110041;1254;36744;-31
2022/09/19 04:51:12;;;;;;;4.20;1.80;;;;;;;;;;110043;1253;36754;-31
2022/09/19 04:53:44;;;;;;;4.30;1.70;;;;;;;;;;110003;1254;37085;-31
2022/09/19 04:56:17;;;;;;;4.70;1.80;;;;;;;;;;110017;1254;37028;-31
2022/09/19 04:58:49;;;;;;;4.20;1.80;;;;;;;;;;110048;1253;36556;-31
2022/09/19 05:01:23;;;;;;;3.70;1.70;;;;;;;;;;110013;1254;36706;-31
2022/09/19 05:03:58;;;;;;;4.60;2.20;;;;;;;;;;110021;1254;34048;-31
2022/09/19 05:06:30;;;;;;;4.40;1.80;;;;;;;;;;110056;1253;36152;-31
2022/09/19 05:09:03;;;;;;;4.40;2.00;;;;;;;;;;109980;1254;36454;-31
2022/09/19 05:11:37;;;;;;;3.60;1.60;;;;;;;;;;110047;1253;36642;-31
2022/09/19 05:14:13;;;;;;;4.60;2.00;;;;;;;;;;110030;1253;34983;-31
2022/09/19 05:16:50;;;;;;;4.70;2.10;;;;;;;;;;109996;1253;35018;-31
2022/09/19 05:19:22;;;;;;;4.10;2.10;;;;;;;;;;110023;1253;36469;-31
2022/09/19 05:21:54;;;;;;;4.50;2.00;;;;;;;;;;110017;1254;37071;-31
2022/09/19 05:24:26;;;;;;;4.00;2.10;;;;;;;;;;110037;1254;37171;-31
2022/09/19 05:26:59;;;;;;;4.00;1.90;;;;;;;;;;110033;1253;34916;-31
2022/09/19 05:29:32;;;;;;;3.90;1.90;;;;;;;;;;110005;1253;36731;-31
2022/09/19 05:32:06;;;;;;;4.30;2.10;;;;;;;;;;110036;1254;36386;-31
2022/09/19 05:34:38;;;;;;;4.40;2.10;;;;;;;;;;110037;1253;36615;-31
2022/09/19 05:37:10;;;;;;;4.70;2.00;;;;;;;;;;110000;1254;36238;-31
2022/09/19 05:39:42;;;;;;;;;;;;;;;;;;110043;1254;36297;-31
2022/09/19 05:42:14;;;;;;;5.10;2.30;;;;;;;;;;110015;1253;36287;-31
2022/09/19 05:44:46;;;;;;;4.20;2.10;;;;;;;;;;110032;1253;37131;-31
2022/09/19 05:47:18;;;;;;;4.50;2.20;;;;;;;;;;110030;1254;36220;-31
2022/09/19 05:49:50;;;;;;;4.70;2.20;;;;;;;;;;110007;1253;36284;-32
2022/09/19 05:55:26;;;;;;;4.20;2.00;;;;;;;;;;109305;1258;36838;-32
2022/09/19 05:57:59;;;;;;;4.30;2.40;;;;;;;;;;109864;1253;36582;-32
2022/09/19 06:00:31;;;;;;;5.10;2.60;;;;;;;;;;110005;1253;37276;-32
2022/09/19 06:03:16;;;;;;;4.40;2.60;;;;;;;;;;110051;1253;36561;-32
2022/09/19 06:05:53;;;;;;;4.50;2.60;;;;;;;;;;110029;1253;36610;-32
2022/09/19 06:08:25;;;;;;;4.20;2.50;;;;;;;;;;110053;1253;36677;-32
2022/09/19 06:11:02;;;;;;;4.10;2.60;;;;;;;;;;110046;1253;35623;-32
2022/09/19 06:16:24;;;;;;;4.80;2.70;;;;;;;;;;110016;1254;36540;-32
2022/09/19 06:18:59;;;;;;;4.20;2.50;;;;;;;;;;110001;1253;36616;-32
2022/09/19 06:21:31;;;;;;;4.50;2.70;;;;;;;;;;109977;1254;34679;-32
2022/09/19 06:24:07;;;;;;;5.20;2.90;;;;;;;;;;110022;1254;36421;-32
2022/09/19 06:26:40;;;;;;;4.80;2.90;;;;;;;;;;109999;1254;35829;-32
2022/09/19 06:29:12;;;;;;;5.00;2.80;;;;;;;;;;110009;1253;36825;-32
2022/09/19 06:31:48;;;;;;;5.10;2.80;;;;;;;;;;109921;1253;34773;-32
2022/09/19 06:34:24;;;;;;;6.30;2.80;;;;;;;;;;110041;1253;37426;-32
2022/09/19 06:36:58;;;;;;;5.00;2.80;;;;;;;;;;109947;1254;36192;-32
2022/09/19 06:39:30;;;;;;;4.90;2.90;;;;;;;;;;110007;1253;36185;-32
2022/09/19 06:42:02;;;;;;;5.80;3.50;;;;;;;;;;109990;1253;34318;-32
2022/09/19 06:44:34;;;;;;;5.50;3.20;;;;;;;;;;110056;1253;36587;-32
2022/09/19 06:47:07;;;;;;;4.80;3.10;;;;;;;;;;110030;1253;36227;-32
2022/09/19 06:49:39;;;;;;;4.90;3.20;;;;;;;;;;110064;1253;34631;-32
2022/09/19 06:52:11;;;;;;;5.10;3.30;;;;;;;;;;109937;1254;36625;-32
2022/09/19 06:54:43;;;;;;;5.80;3.80;;;;;;;;;;110002;1253;34766;-32
2022/09/19 06:57:16;;;;;;;5.40;3.40;;;;;;;;;;110023;1253;36337;-32
2022/09/19 06:59:48;;;;;;;5.00;3.30;;;;;;;;;;110023;1253;36195;-32
2022/09/19 07:02:21;;;;;;;6.00;3.60;;;;;;;;;;110030;1254;36722;-32
2022/09/19 07:04:54;;;;;;;5.00;3.60;;;;;;;;;;110043;1253;36265;-32
2022/09/19 07:07:31;;;;;;;6.30;3.70;;;;;;;;;;110021;1253;36161;-33
2022/09/19 07:10:04;;;;;;;5.20;3.60;;;;;;;;;;110109;1253;36427;-33
2022/09/19 07:12:37;;;;;;;;;;;;;;;;;;110095;1253;36727;-32
2022/09/19 07:15:12;;;;;;;5.70;3.70;;;;;;;;;;110093;1253;36105;-32
2022/09/19 07:17:44;;;;;;;5.80;4.10;;;;;;;;;;110076;1253;36648;-32
2022/09/19 07:20:16;;;;;;;5.70;3.60;;;;;;;;;;110086;1253;35914;-31
2022/09/19 07:22:58;;;;;;;6.80;4.60;;;;;;;;;;110017;1253;34666;-32
2022/09/19 07:25:31;;;;;;;5.90;4.30;;;;;;;;;;110058;1253;34766;-33
2022/09/19 07:28:09;;;;;;;7.00;5.00;;;;;;;;;;110037;1253;33948;-33
2022/09/19 07:30:43;;;;;;;6.10;4.40;;;;;;;;;;110104;1254;36782;-33
2022/09/19 07:33:19;;;;;;;6.90;4.50;;;;;;;;;;110026;1253;36798;-35
2022/09/19 07:35:53;;;;;;;6.70;4.50;;;;;;;;;;109920;1254;37983;-35
2022/09/19 07:38:28;;;;;;;6.10;4.70;;;;;;;;;;109965;1254;34980;-33
2022/09/19 07:41:01;;;;;;;5.80;4.40;;;;;;;;;;109967;1254;36242;-32
2022/09/19 07:43:33;;;;;;;6.60;4.40;;;;;;;;;;110008;1253;38107;-33
2022/09/19 07:46:06;;;;;;;5.80;4.40;;;;;;;;;;110045;1253;36673;-33
2022/09/19 07:48:41;;;;;;;6.30;4.40;;;;;;;;;;110055;1253;35114;-32
2022/09/19 07:51:13;;;;;;;6.60;4.30;;;;;;;;;;110138;1253;36594;-34
2022/09/19 07:53:49;;;;;;;6.20;4.20;;;;;;;;;;110014;1254;36296;-35
2022/09/19 07:56:21;;;;;;;6.00;4.40;;;;;;;;;;110052;1254;36660;-32
2022/09/19 07:58:54;;;;;;;6.50;4.10;;;;;;;;;;110042;1253;34158;-33
2022/09/19 08:01:27;;;;;;;6.40;4.10;;;;;;;;;;110043;1253;36175;-33
2022/09/19 08:03:59;;;;;;;6.50;4.40;;;;;;;;;;110052;1253;36881;-33
2022/09/19 08:06:32;;;;;;;5.60;3.70;;;;;;;;;;110064;1253;36622;-33
2022/09/19 08:09:04;;;;;;;5.30;3.80;;;;;;;;;;110043;1254;36760;-34
2022/09/19 08:11:38;;;;;;;5.90;4.00;;;;;;;;;;110065;1254;36412;-34
2022/09/19 08:14:11;;;;;;;6.30;4.00;;;;;;;;;;110064;1254;36461;-33
2022/09/19 08:16:44;;;;;;;5.60;4.10;;;;;;;;;;110022;1253;35222;-33
2022/09/19 08:19:17;;;;;;;5.20;3.50;;;;;;;;;;109966;1253;36643;-33
2022/09/19 08:21:51;;;;;;;6.80;3.60;;;;;;;;;;109996;1253;36302;-34
2022/09/19 08:24:24;;;;;;;5.30;4.00;;;;;;;;;;109914;1253;36651;-34
2022/09/19 08:26:59;;;;;;;5.10;3.70;;;;;;;;;;109946;1253;34394;-33
2022/09/19 08:29:32;;;;;;;4.90;3.60;;;;;;;;;;109979;1253;36338;-34
2022/09/19 08:32:06;;;;;;;4.80;3.70;;;;;;;;;;110073;1253;33860;-34
2022/09/19 08:34:39;;;;;;;5.30;3.60;;;;;;;;;;110018;1254;38359;-34
2022/09/19 08:37:12;;;;;;;5.30;3.70;;;;;;;;;;109910;1253;37018;-33
2022/09/19 08:40:15;;;;;;;5.40;3.30;;;;;;;;;;110069;1253;33973;-33
2022/09/19 08:42:44;;;;;;;5.10;3.50;;;;;;;;;;109871;1253;34824;-34
2022/09/19 08:45:26;;;;;;;4.60;3.30;;;;;;;;;;109971;1253;36377;-34
2022/09/19 08:48:05;;;;;;;5.70;3.40;;;;;;;;;;110058;1253;36323;-33
2022/09/19 08:50:43;;;;;;;5.30;3.40;;;;;;;;;;110045;1253;34827;-34
2022/09/19 08:53:27;;;;;;;6.20;3.60;;;;;;;;;;110066;1252;35191;-34
2022/09/19 08:56:01;;;;;;;4.40;3.20;;;;;;;;;;109977;1253;36747;-35
2022/09/19 08:58:44;;;;;;;4.70;3.10;;;;;;;;;;109961;1253;36716;-34
2022/09/19 09:01:21;;;;;;;4.50;2.90;;;;;;;;;;109985;1253;35891;-34
2022/09/19 09:04:08;;;;;;;5.40;3.50;;;;;;;;;;109980;1253;35882;-34
2022/09/19 09:06:53;;;;;;;5.20;3.40;;;;;;;;;;109976;1254;35788;-34
2022/09/19 09:09:38;;;;;;;5.40;3.60;;;;;;;;;;109969;1253;35960;-34
2022/09/19 09:12:31;;;;;;;4.70;2.90;;;;;;;;;;109976;1253;33897;-34
2022/09/19 09:15:09;;;;;;;;;;;;;;;;;;109984;1253;36356;-34
2022/09/19 09:17:52;;;;;;;4.60;3.00;;;;;;;;;;109929;1253;35804;-35
2022/09/19 09:20:46;;;;;;;5.30;3.20;;;;;;;;;;109988;1253;33671;-34
2022/09/19 09:23:28;;;;;;;5.10;3.30;;;;;;;;;;109944;1253;34669;-34
2022/09/19 09:26:09;;;;;;;5.20;3.20;;;;;;;;;;110121;1253;36389;-34
2022/09/19 09:28:51;;;;;;;5.20;3.20;;;;;;;;;;109956;1253;35363;-34
2022/09/19 09:31:33;;;;;;;5.40;3.50;;;;;;;;;;110035;1253;36251;-34
2022/09/19 09:34:11;;;;;;;6.20;3.50;;;;;;;;;;110076;1254;36126;-33
2022/09/19 09:36:52;;;;;;;4.60;3.10;;;;;;;;;;109995;1253;36354;-34
2022/09/19 09:39:31;;;;;;;5.70;3.00;;;;;;;;;;110117;1253;36379;-33
2022/09/19 09:42:05;;;;;;;4.70;2.90;;;;;;;;;;109945;1253;36108;-33
2022/09/19 09:44:56;;;;;;;5.10;3.30;;;;;;;;;;110002;1253;35387;-33
2022/09/19 09:47:44;;;;;;;5.30;3.20;;;;;;;;;;110087;1253;36008;-33
2022/09/19 09:50:40;;;;;;;4.60;3.10;;;;;;;;;;110038;1253;34580;-32
2022/09/19 09:53:28;;;;;;;4.70;2.90;;;;;;;;;;109995;1253;33310;-32
2022/09/19 09:56:16;;;;;;;4.40;2.90;;;;;;;;;;109929;1253;36276;-34
2022/09/19 10:05:29;;;;;;;5.10;2.80;;;;;;;;;;109938;1253;35902;-34
2022/09/19 10:08:18;;;;;;;4.50;2.70;;;;;;;;;;109982;1252;35640;-34
2022/09/19 10:10:54;;;;;;;4.30;3.10;;;;;;;;;;109999;1252;35812;-34
2022/09/19 10:13:39;;;;;;;4.30;2.70;;;;;;;;;;109972;1253;36394;-34
2022/09/19 10:16:14;;;;;;;4.30;2.80;;;;;;;;;;109954;1253;35426;-34
2022/09/19 10:18:55;;;;;;;4.40;2.60;;;;;;;;;;109987;1253;35646;-34
2022/09/19 10:21:28;;;;;;;4.80;2.70;;;;;;;;;;110077;1253;35501;-35
2022/09/19 10:24:06;;;;;;;4.20;2.60;;;;;;;;;;109932;1253;36280;-34
2022/09/19 10:26:38;;;;;;;4.70;2.80;;;;;;;;;;110028;1253;34297;-34
2022/09/19 10:29:23;;;;;;;3.90;2.60;;;;;;;;;;110048;1253;35679;-33
2022/09/19 10:31:57;;;;;;;4.50;2.60;;;;;;;;;;110079;1253;35708;-33
2022/09/19 10:34:35;;;;;;;3.90;2.50;;;;;;;;;;110120;1253;35701;-34
2022/09/19 10:37:12;;;;;;;4.00;2.40;;;;;;;;;;109988;1253;36552;-33
2022/09/19 10:39:50;;;;;;;3.90;2.50;;;;;;;;;;109970;1253;34813;-32
2022/09/19 10:42:38;;;;;;;4.60;2.80;;;;;;;;;;109941;1254;36188;-32
2022/09/19 10:45:24;;;;;;;4.40;2.40;;;;;;;;;;109978;1253;35165;-33
2022/09/19 10:48:08;;;;;;;4.50;2.60;;;;;;;;;;109939;1253;33820;-33
2022/09/19 10:50:47;;;;;;;4.40;2.70;;;;;;;;;;109976;1254;35855;-33
2022/09/19 10:53:28;;;;;;;4.40;2.50;;;;;;;;;;110001;1253;35934;-33
2022/09/19 10:56:08;;;;;;;5.10;2.70;;;;;;;;;;110115;1253;33834;-33
2022/09/19 10:58:42;;;;;;;3.90;2.10;;;;;;;;;;110007;1253;33534;-34
2022/09/19 11:01:26;;;;;;;4.60;2.40;;;;;;;;;;110012;1253;34244;-34
2022/09/19 11:04:21;;;;;;;4.50;2.50;;;;;;;;;;109978;1253;36290;-33
2022/09/19 11:07:03;;;;;;;3.60;2.00;;;;;;;;;;109940;1253;35651;-34
2022/09/19 11:09:38;;;;;;;5.20;2.20;;;;;;;;;;109982;1253;35935;-34
2022/09/19 11:12:16;;;;;;;3.80;2.20;;;;;;;;;;109970;1253;36407;-34
2022/09/19 11:14:55;;;;;;;3.90;2.40;;;;;;;;;;110083;1253;35850;-34
2022/09/19 11:17:58;;;;;;;3.80;2.10;;;;;;;;;;110159;1253;35700;-34
2022/09/19 11:20:41;;;;;;;3.90;2.30;;;;;;;;;;109818;1253;36396;-34
2022/09/19 11:23:29;;;;;;;4.30;2.50;;;;;;;;;;109958;1253;34232;-33
2022/09/19 11:26:24;;;;;;;4.00;2.30;;;;;;;;;;109906;1254;33848;-33
2022/09/19 11:29:20;;;;;;;4.10;2.30;;;;;;;;;;109941;1253;33913;-34
2022/09/19 11:32:08;;;;;;;3.70;2.20;;;;;;;;;;109918;1253;35651;-32
2022/09/19 11:34:49;;;;;;;3.90;2.20;;;;;;;;;;109779;1254;35510;-32
2022/09/19 11:37:41;;;;;;;3.30;1.90;;;;;;;;;;109739;1253;34906;-32
2022/09/19 11:40:41;;;;;;;4.00;2.10;;;;;;;;;;109798;1254;36011;-32
2022/09/19 11:43:29;;;;;;;3.80;2.20;;;;;;;;;;109907;1254;35067;-32
2022/09/19 11:46:20;;;;;;;4.60;2.40;;;;;;;;;;109957;1253;37066;-32
2022/09/19 11:49:13;;;;;;;;;;;;;;;;;;109933;1253;34925;-32
2022/09/19 11:51:56;;;;;;;3.90;2.20;;;;;;;;;;110021;1254;35801;-32
2022/09/19 11:54:51;;;;;;;3.40;1.90;;;;;;;;;;110061;1253;35609;-32
2022/09/19 11:57:43;;;;;;;4.40;2.10;;;;;;;;;;110010;1254;36207;-32
2022/09/19 12:00:26;;;;;;;3.80;2.30;;;;;;;;;;110116;1254;36290;-32
2022/09/19 12:03:24;;;;;;;3.90;2.00;;;;;;;;;;110086;1253;36242;-33
2022/09/19 12:06:22;;;;;;;4.50;2.00;;;;;;;;;;110031;1253;34878;-31
2022/09/19 12:09:13;;;;;;;3.30;1.80;;;;;;;;;;109987;1254;36319;-31
2022/09/19 12:11:51;;;;;;;4.00;2.20;;;;;;;;;;110027;1253;36309;-30
2022/09/19 12:14:29;;;;;;;4.00;1.90;;;;;;;;;;110015;1254;34035;-30
2022/09/19 12:17:10;;;;;;;3.90;2.00;;;;;;;;;;110010;1254;33887;-30
2022/09/19 12:19:46;;;;;;;3.60;2.00;;;;;;;;;;109957;1254;34939;-30
2022/09/19 12:22:22;;;;;;;4.10;2.00;;;;;;;;;;110002;1254;36287;-31
2022/09/19 12:25:05;;;;;;;3.80;2.20;;;;;;;;;;109985;1254;33910;-30
2022/09/19 12:27:43;;;;;;;4.40;2.20;;;;;;;;;;110022;1254;37323;-30
2022/09/19 12:30:19;;;;;;;4.70;2.00;;;;;;;;;;109931;1253;36459;-31
2022/09/19 12:32:59;;;;;;;4.80;2.20;;;;;;;;;;110023;1253;36604;-30
2022/09/19 12:35:37;;;;;;;4.60;2.10;;;;;;;;;;110065;1253;36295;-31
2022/09/19 12:38:26;;;;;;;4.50;2.00;;;;;;;;;;110036;1253;33718;-31
2022/09/19 12:41:10;;;;;;;4.20;2.00;;;;;;;;;;110093;1253;37111;-32
2022/09/19 12:43:53;;;;;;;4.30;2.20;;;;;;;;;;109628;1253;35819;-33
2022/09/19 12:46:43;;;;;;;4.00;1.90;;;;;;;;;;110035;1254;34360;-33
2022/09/19 12:49:28;;;;;;;4.00;2.10;;;;;;;;;;109977;1253;33305;-33
2022/09/19 12:52:09;;;;;;;4.30;1.90;;;;;;;;;;110099;1253;34547;-33
2022/09/19 12:54:51;;;;;;;5.00;1.90;;;;;;;;;;110076;1253;36903;-33
2022/09/19 12:57:36;;;;;;;4.70;2.00;;;;;;;;;;109997;1253;33836;-33
2022/09/19 13:00:13;;;;;;;4.70;2.00;;;;;;;;;;109989;1253;34439;-32
2022/09/19 13:02:51;;;;;;;4.20;1.90;;;;;;;;;;109570;1253;45847;-32
2022/09/19 13:05:37;;;;;;;5.00;1.90;;;;;;;;;;110112;1252;33686;-32
2022/09/19 13:08:14;;;;;;;4.30;1.90;;;;;;;;;;110139;1253;36293;-33
2022/09/19 13:10:54;;;;;;;3.60;1.80;;;;;;;;;;110076;1253;36056;-33
2022/09/19 13:13:34;;;;;;;4.00;1.80;;;;;;;;;;109999;1253;36504;-32
2022/09/19 13:16:13;;;;;;;4.40;1.90;;;;;;;;;;110035;1253;36210;-32
2022/09/19 13:24:56;;;;;;;4.10;2.10;;;;;;;;;;109886;1253;34548;-34
2022/09/19 13:27:33;;;;;;;3.80;1.90;;;;;;;;;;110129;1253;36073;-33
2022/09/19 13:30:18;;;;;;;3.40;1.80;;;;;;;;;;110014;1253;36162;-33
2022/09/19 13:32:58;;;;;;;4.70;2.00;;;;;;;;;;110019;1253;34626;-35
2022/09/19 13:35:51;;;;;;;4.00;1.90;;;;;;;;;;110058;1253;36432;-33
2022/09/19 13:38:38;;;;;;;3.70;1.70;;;;;;;;;;109903;1254;36799;-32
2022/09/19 13:41:19;;;;;;;3.30;1.70;;;;;;;;;;109933;1254;36491;-33
2022/09/19 13:44:18;;;;;;;3.80;1.80;;;;;;;;;;109942;1254;35081;-34
2022/09/19 13:47:07;;;;;;;3.60;1.80;;;;;;;;;;109970;1254;36047;-34
2022/09/19 13:49:45;;;;;;;4.00;1.90;;;;;;;;;;109983;1254;34947;-34
2022/09/19 13:52:26;;;;;;;4.60;1.80;;;;;;;;;;109204;1254;1033466;-34
2022/09/19 13:55:20;;;;;;;3.30;1.50;;;;;;;;;;110023;1254;36007;-34
2022/09/19 13:58:32;;;;;;;3.00;1.60;;;;;;;;;;109998;1254;35632;-33
2022/09/19 14:01:22;;;;;;;3.50;2.00;;;;;;;;;;109996;1254;37135;-34
2022/09/19 14:07:00;;;;;;;3.20;1.70;;;;;;;;;;110015;1254;34428;-33
2022/09/19 14:09:42;;;;;;;4.20;1.80;;;;;;;;;;109902;1254;35142;-33
2022/09/19 14:13:04;;;;;;;4.60;2.00;;;;;;;;;;109964;1254;36250;-33
2022/09/19 14:16:29;;;;;;;3.40;1.60;;;;;;;;;;109093;1259;34284;-33
2022/09/19 14:19:29;;;;;;;5.40;1.80;;;;;;;;;;109962;1254;36722;-33
2022/09/19 14:22:02;;;;;;;4.30;1.90;;;;;;;;;;109931;1254;36287;-35
2022/09/19 14:25:02;;;;;;;5.50;1.80;;;;;;;;;;109979;1254;34846;-34
2022/09/19 14:28:18;;;;;;;3.30;1.50;;;;;;;;;;109802;1255;36741;-34
2022/09/19 14:31:34;;;;;;;3.90;1.70;;;;;;;;;;109638;1255;36232;-34
2022/09/19 14:34:51;;;;;;;3.90;1.80;;;;;;;;;;109622;1255;36903;-34
2022/09/19 14:38:14;;;;;;;3.80;1.60;;;;;;;;;;110095;1253;36667;-34
2022/09/19 14:40:59;;;;;;;4.40;1.70;;;;;;;;;;109677;1253;36277;-34
2022/09/19 14:44:28;;;;;;;3.40;1.70;;;;;;;;;;109750;1253;36745;-34
2022/09/19 14:47:03;;;;;;;4.10;1.80;;;;;;;;;;109956;1253;36685;-34
2022/09/19 14:49:47;;;;;;;3.70;1.60;;;;;;;;;;109861;1253;34605;-34
2022/09/19 14:52:23;;;;;;;3.70;1.80;;;;;;;;;;109959;1253;36316;-35
2022/09/19 14:55:01;;;;;;;4.40;1.80;;;;;;;;;;110121;1253;36334;-33
2022/09/19 14:57:35;;;;;;;4.00;2.00;;;;;;;;;;110077;1253;36728;-33
2022/09/19 15:00:27;;;;;;;4.20;1.80;;;;;;;;;;110127;1253;36750;-33
2022/09/19 15:03:02;;;;;;;3.70;1.70;;;;;;;;;;110010;1254;37447;-33
2022/09/19 15:05:37;;;;;;;4.40;2.00;;;;;;;;;;110101;1253;35010;-34
2022/09/19 15:08:30;;;;;;;4.10;1.80;;;;;;;;;;110108;1252;34992;-34
2022/09/19 15:11:05;;;;;;;3.70;1.70;;;;;;;;;;110018;1253;36326;-34
2022/09/19 15:13:45;;;;;;;4.10;1.90;;;;;;;;;;110075;1253;36242;-33
2022/09/19 15:16:20;;;;;;;3.30;1.60;;;;;;;;;;110003;1254;36622;-33
2022/09/19 15:18:57;;;;;;;4.30;1.70;;;;;;;;;;109976;1253;35113;-34
2022/09/19 15:21:38;;;;;;;4.80;1.90;;;;;;;;;;110052;1253;36207;-34
2022/09/19 15:24:13;;;;;;;4.90;2.00;;;;;;;;;;110017;1253;36257;-34
2022/09/19 15:26:55;;;;;;;3.90;1.80;;;;;;;;;;110082;1253;36346;-34
2022/09/19 15:29:36;;;;;;;3.10;1.60;;;;;;;;;;109854;1252;37199;-34
2022/09/19 15:32:22;;;;;;;4.30;1.90;;;;;;;;;;109859;1252;36724;-34
2022/09/19 15:34:54;;;;;;;3.70;1.50;;;;;;;;;;110913;1252;35068;-34
2022/09/19 15:37:31;;;;;;;;;;;;;;;;;;110081;1253;36386;-34
2022/09/19 15:40:04;;;;;;;3.70;1.50;;;;;;;;;;109957;1252;35420;-34
2022/09/19 15:42:42;;;;;;;3.10;1.50;;;;;;;;;;110058;1253;36019;-34
2022/09/19 15:45:43;;;;;;;4.90;1.60;;;;;;;;;;110139;1253;34605;-33
2022/09/19 15:48:25;;;;;;;4.50;1.70;;;;;;;;;;110105;1253;36905;-32
2022/09/19 15:50:59;;;;;;;;;;;;;;;;;;110144;1252;34106;-33
2022/09/19 15:53:38;;;;;;;6.40;2.10;;;;;;;;;;110073;1253;33442;-33
2022/09/19 15:56:18;;;;;;;5.30;2.30;;;;;;;;;;110027;1253;36347;-32
2022/09/19 15:58:56;;;;;;;4.70;2.20;;;;;;;;;;109991;1253;36783;-32
2022/09/19 16:01:32;;;;;;;4.70;2.30;;;;;;;;;;110133;1253;36795;-32
2022/09/19 16:04:14;;;;;;;5.30;2.50;;;;;;;;;;110029;1253;36265;-32
2022/09/19 16:10:11;;;;;;;4.10;1.80;;;;;;;;;;110072;1253;36699;-32
2022/09/19 16:12:51;;;;;;;5.30;2.20;;;;;;;;;;110019;1252;35269;-32
2022/09/19 16:15:36;;;;;;;4.50;1.70;;;;;;;;;;110065;1253;34019;-32
2022/09/19 16:18:21;;;;;;;4.10;2.10;;;;;;;;;;110033;1253;36252;-32